createdAt,value
2019-03-28T00:03:56.384Z,98460.58
2019-03-28T00:08:52.913Z,98462.28
2019-03-28T00:13:49.612Z,98463.70
2019-03-28T00:18:46.163Z,98454.16
2019-03-28T00:24:03.500Z,98468.96
2019-03-28T00:29:00.046Z,98463.11
2019-03-28T00:33:56.737Z,98468.23
2019-03-28T00:38:53.305Z,98464.10
2019-03-28T00:43:50.008Z,98460.91
2019-03-28T00:48:46.612Z,98464.50
2019-03-28T00:53:43.161Z,98458.17
2019-03-28T00:58:39.738Z,98455.73
2019-03-28T01:03:36.587Z,98451.27
2019-03-28T01:08:33.080Z,98446.84
2019-03-28T01:13:29.627Z,98450.41
2019-03-28T01:18:26.259Z,98451.37
2019-03-28T01:23:22.748Z,98445.66
2019-03-28T01:28:19.289Z,98445.55
2019-03-28T01:33:15.908Z,98441.48
2019-03-28T01:38:12.422Z,98444.23
2019-03-28T01:43:08.939Z,98446.89
2019-03-28T01:48:05.423Z,98436.22
2019-03-28T01:53:02.087Z,98434.14
2019-03-28T01:57:58.703Z,98431.94
2019-03-28T02:02:55.225Z,98427.20
2019-03-28T02:07:51.746Z,98425.22
2019-03-28T02:12:48.402Z,98419.80
2019-03-28T02:17:44.967Z,98415.97
2019-03-28T02:22:41.599Z,98416.13
2019-03-28T02:27:38.125Z,98417.03
2019-03-28T02:32:34.655Z,98418.27
2019-03-28T02:37:31.205Z,98410.31
2019-03-28T02:42:28.136Z,98422.61
2019-03-28T02:47:24.767Z,98423.80
2019-03-28T02:52:21.696Z,98418.50
2019-03-28T02:57:18.476Z,98417.91
2019-03-28T03:02:15.004Z,98397.04
2019-03-28T03:07:11.573Z,98401.64
2019-03-28T03:12:08.103Z,98408.89
2019-03-28T03:17:04.711Z,98406.94
2019-03-28T03:22:01.282Z,98411.22
2019-03-28T03:26:57.826Z,98411.19
2019-03-28T03:31:54.405Z,98410.70
2019-03-28T03:36:51.136Z,98413.45
2019-03-28T03:41:47.765Z,98416.39
2019-03-28T03:46:44.396Z,98408.45
2019-03-28T03:51:41.164Z,98408.58
2019-03-28T03:56:37.963Z,98405.77
2019-03-28T04:01:34.584Z,98401.79
2019-03-28T04:06:31.161Z,98404.87
2019-03-28T04:11:27.768Z,98403.13
2019-03-28T04:16:24.350Z,98399.34
2019-03-28T04:21:21.029Z,98402.06
2019-03-28T04:26:19.679Z,98390.45
2019-03-28T04:31:16.324Z,98402.19
2019-03-28T04:36:12.988Z,98400.00
2019-03-28T04:41:09.561Z,98400.44
2019-03-28T04:46:06.250Z,98398.04
2019-03-28T04:51:02.866Z,98400.59
2019-03-28T04:55:59.555Z,98402.92
2019-03-28T05:00:56.197Z,98407.34
2019-03-28T05:05:52.837Z,98402.02
2019-03-28T05:10:49.464Z,98400.89
2019-03-28T05:15:46.090Z,98402.06
2019-03-28T05:20:42.650Z,98399.66
2019-03-28T05:25:39.262Z,98406.22
2019-03-28T05:30:35.830Z,98405.05
2019-03-28T05:35:32.409Z,98398.66
2019-03-28T05:40:29.053Z,98407.08
2019-03-28T05:45:25.692Z,98407.55
2019-03-28T05:50:22.339Z,98418.17
2019-03-28T05:55:19.017Z,98418.84
2019-03-28T06:00:15.958Z,98426.17
2019-03-28T06:05:12.735Z,98434.52
2019-03-28T06:10:10.463Z,98437.86
2019-03-28T06:15:09.687Z,98432.70
2019-03-28T06:20:13.043Z,98431.19
2019-03-28T06:25:10.817Z,98440.61
2019-03-28T06:30:11.138Z,98439.63
2019-03-28T06:35:09.099Z,98443.55
2019-03-28T06:40:06.529Z,98440.77
2019-03-28T06:45:04.010Z,98448.14
2019-03-28T06:50:00.922Z,98446.73
2019-03-28T06:54:57.587Z,98445.58
2019-03-28T06:59:54.307Z,98458.66
2019-03-28T07:04:50.982Z,98441.59
2019-03-28T07:09:47.667Z,98446.58
2019-03-28T07:14:45.768Z,98434.60
2019-03-28T07:19:43.965Z,98440.63
2019-03-28T07:24:42.748Z,98437.89
2019-03-28T07:29:50.191Z,98439.05
2019-03-28T07:34:45.343Z,98448.08
2019-03-28T07:39:44.817Z,98443.52
2019-03-28T07:44:44.811Z,98444.18
2019-03-28T07:49:41.690Z,98440.56
2019-03-28T08:00:50.241Z,98424.09
2019-03-28T08:05:46.943Z,98421.71
2019-03-28T08:10:43.593Z,98413.83
2019-03-28T08:15:40.396Z,98415.55
2019-03-28T08:20:39.881Z,98412.73
2019-03-28T08:25:36.623Z,98413.89
2019-03-28T08:30:39.606Z,98423.52
2019-03-28T08:35:37.465Z,98421.96
2019-03-28T08:47:35.680Z,98414.97
2019-03-28T08:52:30.571Z,98415.03
2019-03-28T09:04:03.156Z,98407.27
2019-03-28T09:09:42.239Z,98399.06
2019-03-28T09:15:25.701Z,98407.34
2019-03-28T09:21:47.531Z,98408.63
2019-03-28T09:27:29.906Z,98396.39
2019-03-28T09:33:23.497Z,98401.77
2019-03-28T09:39:24.720Z,98389.61
2019-03-28T09:44:54.021Z,98376.83
2019-03-28T09:51:04.603Z,98386.61
2019-03-28T10:02:31.749Z,98371.14
2019-03-28T10:08:03.547Z,98375.05
2019-03-28T10:13:17.309Z,98367.25
2019-03-28T10:18:42.635Z,98368.09
2019-03-28T10:24:19.969Z,98355.05
2019-03-28T10:30:16.638Z,98360.21
2019-03-28T10:36:32.746Z,98352.33
2019-03-28T10:41:31.290Z,98360.77
2019-03-28T10:46:56.127Z,98353.80
2019-03-28T10:53:09.882Z,98351.02
2019-03-28T10:57:51.269Z,98350.59
2019-03-28T11:02:50.476Z,98344.34
2019-03-28T11:07:50.527Z,98339.31
2019-03-28T11:12:53.194Z,98336.89
2019-03-28T11:17:54.459Z,98327.64
2019-03-28T11:23:11.815Z,98329.77
2019-03-28T11:28:11.703Z,98317.91
2019-03-28T11:33:17.191Z,98317.55
2019-03-28T11:38:14.410Z,98321.42
2019-03-28T11:43:14.102Z,98320.58
2019-03-28T11:48:25.143Z,98317.89
2019-03-28T11:53:42.911Z,98315.71
2019-03-28T11:58:52.132Z,98313.21
2019-03-28T12:03:56.568Z,98307.05
2019-03-28T12:09:13.063Z,98307.17
2019-03-28T12:14:10.076Z,98289.55
2019-03-28T12:19:07.982Z,98286.22
2019-03-28T12:24:12.071Z,98297.61
2019-03-28T12:29:31.856Z,98284.66
2019-03-28T12:34:32.037Z,98279.56
2019-03-28T12:40:00.107Z,98274.27
2019-03-28T12:45:46.538Z,98270.87
2019-03-28T12:50:23.665Z,98264.11
2019-03-28T12:55:45.489Z,98263.02
2019-03-28T13:00:43.462Z,98263.45
2019-03-28T13:05:45.373Z,98276.48
2019-03-28T13:10:42.196Z,98262.77
2019-03-28T13:15:58.487Z,98256.13
2019-03-28T13:21:12.798Z,98255.61
2019-03-28T13:26:09.928Z,98253.48
2019-03-28T13:31:14.220Z,98246.08
2019-03-28T13:36:10.875Z,98242.60
2019-03-28T13:41:07.792Z,98248.11
2019-03-28T13:46:05.468Z,98243.12
2019-03-28T13:51:03.637Z,98237.87
2019-03-28T13:56:03.155Z,98241.51
2019-03-28T14:00:59.720Z,98238.77
2019-03-28T14:06:26.068Z,98245.47
2019-03-28T14:11:52.900Z,98230.92
2019-03-28T14:16:44.078Z,98240.96
2019-03-28T14:21:42.486Z,98236.53
2019-03-28T14:26:44.080Z,98234.39
2019-03-28T14:31:42.985Z,98234.09
2019-03-28T14:36:47.284Z,98226.40
2019-03-28T14:41:46.638Z,98228.72
2019-03-28T14:46:43.612Z,98217.53
2019-03-28T14:51:49.936Z,98224.94
2019-03-28T14:56:49.812Z,98221.41
2019-03-28T15:02:05.274Z,98226.45
2019-03-28T15:07:07.278Z,98233.85
2019-03-28T15:12:03.616Z,98233.98
2019-03-28T15:17:00.707Z,98226.40
2019-03-28T15:22:06.612Z,98234.09
2019-03-28T15:27:06.880Z,98227.55
2019-03-28T15:32:13.215Z,98223.42
2019-03-28T15:37:09.995Z,98231.03
2019-03-28T15:42:06.923Z,98216.36
2019-03-28T15:47:04.732Z,98225.22
2019-03-28T15:52:05.267Z,98228.28
2019-03-28T15:57:13.053Z,98222.30
2019-03-28T16:02:10.015Z,98226.84
2019-03-28T16:07:07.731Z,98228.57
2019-03-28T16:12:06.546Z,98225.16
2019-03-28T16:17:07.442Z,98220.02
2019-03-28T16:22:11.600Z,98219.54
2019-03-28T16:27:20.483Z,98224.57
2019-03-28T16:32:17.550Z,98221.73
2019-03-28T16:37:14.442Z,98226.13
2019-03-28T16:42:28.936Z,98227.22
2019-03-28T16:47:55.647Z,98229.57
2019-03-28T16:53:12.158Z,98228.52
2019-03-28T16:58:16.489Z,98231.69
2019-03-28T17:03:24.441Z,98224.67
2019-03-28T17:08:25.870Z,98230.41
2019-03-28T17:13:22.889Z,98232.19
2019-03-28T17:18:24.679Z,98247.55
2019-03-28T17:23:28.733Z,98244.56
2019-03-28T17:28:27.440Z,98241.00
2019-03-28T17:33:29.287Z,98241.95
2019-03-28T17:38:28.400Z,98248.43
2019-03-28T17:43:25.137Z,98256.20
2019-03-28T17:48:23.171Z,98256.85
2019-03-28T17:53:23.962Z,98263.44
2019-03-28T17:58:19.826Z,98266.03
2019-03-28T18:03:30.223Z,98274.86
2019-03-28T18:08:22.101Z,98275.03
2019-03-28T18:13:27.295Z,98276.50
2019-03-28T18:18:25.501Z,98285.28
2019-03-28T18:23:26.223Z,98283.07
2019-03-28T18:28:31.250Z,98281.06
2019-03-28T18:33:35.242Z,98288.56
2019-03-28T18:38:56.727Z,98295.13
2019-03-28T18:44:05.347Z,98296.02
2019-03-28T18:49:14.092Z,98299.00
2019-03-28T18:54:21.592Z,98301.22
2019-03-28T18:59:21.148Z,98311.66
2019-03-28T19:04:20.065Z,98316.72
2019-03-28T19:09:17.005Z,98310.88
2019-03-28T19:14:15.073Z,98311.03
2019-03-28T19:19:16.301Z,98315.05
2019-03-28T19:24:22.940Z,98319.74
2019-03-28T19:29:21.123Z,98322.23
2019-03-28T19:34:30.296Z,98326.02
2019-03-28T19:39:39.447Z,98325.42
2019-03-28T19:44:55.021Z,98325.09
2019-03-28T19:50:35.351Z,98329.50
2019-03-28T19:55:39.607Z,98323.30
2019-03-28T20:06:27.704Z,98324.00
2019-03-28T20:11:28.894Z,98324.65
2019-03-28T20:16:27.978Z,98321.70
2019-03-28T20:21:26.255Z,98328.92
2019-03-28T20:26:26.603Z,98329.23
2019-03-28T20:37:37.848Z,98332.47
2019-03-28T20:42:45.738Z,98334.63
2019-03-28T20:47:53.341Z,98331.86
2019-03-28T20:53:06.178Z,98329.23
2019-03-28T20:58:11.928Z,98329.00
2019-03-28T21:03:16.342Z,98323.70
2019-03-28T21:08:13.246Z,98326.81
2019-03-28T21:13:20.651Z,98320.12
2019-03-28T21:18:13.083Z,98322.83
2019-03-28T21:23:10.235Z,98318.89
2019-03-28T21:28:20.519Z,98315.81
2019-03-28T21:33:26.032Z,98316.22
2019-03-28T21:39:08.351Z,98314.05
2019-03-28T21:44:41.632Z,98310.27
2019-03-28T21:49:45.392Z,98303.41
2019-03-28T21:54:45.430Z,98311.13
2019-03-28T21:59:53.169Z,98319.44
2019-03-28T22:04:55.065Z,98322.30
2019-03-28T22:10:11.613Z,98323.83
2019-03-28T22:15:15.353Z,98326.59
2019-03-28T22:20:19.359Z,98327.77
2019-03-28T22:25:16.128Z,98327.59
2019-03-28T22:30:16.544Z,98318.67
2019-03-28T22:35:23.450Z,98322.11
2019-03-28T22:40:25.110Z,98315.86
2019-03-28T22:45:27.329Z,98317.53
2019-03-28T22:50:36.385Z,98307.06
2019-03-28T22:56:04.183Z,98310.11
2019-03-28T23:01:03.676Z,98306.27
2019-03-28T23:06:01.752Z,98299.14
2019-03-28T23:11:04.531Z,98296.31
2019-03-28T23:16:11.342Z,98295.42
2019-03-28T23:21:08.235Z,98278.64
2019-03-28T23:26:10.708Z,98281.08
2019-03-28T23:31:25.514Z,98268.97
2019-03-28T23:36:34.533Z,98270.79
2019-03-28T23:41:52.540Z,98267.33
2019-03-28T23:47:02.372Z,98261.97
2019-03-28T23:52:20.698Z,98267.54
2019-03-28T23:57:58.761Z,98252.05
